Time;durP1;ratioP1;P1;durP2;ratioP2;P2;SDS_P1;SDS_P2;PMS_P1;PMS_P2;Temp;Humidity;BMP_temperature;BMP_pressure;BME280_temperature;BME280_humidity;BME280_pressure;Samples;Min_cycle;Max_cycle;Signal;HPM_P1;HPM_P2
2022/07/07 00:00:01;;;;;;;2.77;2.00;;;15.10;99.90;;;;;;4990394;28;20652;-80
2022/07/07 00:02:28;;;;;;;6.10;2.30;;;15.20;99.90;;;;;;4989725;28;20671;-81
2022/07/07 00:04:55;;;;;;;4.33;2.23;;;15.20;99.90;;;;;;4991209;28;21091;-81
2022/07/07 00:07:22;;;;;;;4.83;2.00;;;15.20;99.90;;;;;;4990574;28;20659;-80
2022/07/07 00:09:49;;;;;;;3.47;1.87;;;15.30;99.90;;;;;;4986903;28;20666;-80
2022/07/07 00:12:15;;;;;;;4.63;2.23;;;15.30;99.90;;;;;;4990165;28;20633;-81
2022/07/07 00:14:42;;;;;;;2.10;1.90;;;15.40;99.90;;;;;;4990784;28;21191;-80
2022/07/07 00:17:10;;;;;;;5.30;2.03;;;15.40;99.90;;;;;;4990707;28;20624;-80
2022/07/07 00:19:37;;;;;;;2.60;1.90;;;15.30;99.90;;;;;;4991248;28;20667;-81
2022/07/07 00:22:04;;;;;;;2.70;2.07;;;15.30;99.90;;;;;;4987658;28;20639;-80
2022/07/07 00:24:31;;;;;;;1.80;1.70;;;15.30;99.90;;;;;;4990262;28;20643;-80
2022/07/07 00:26:58;;;;;;;3.13;2.10;;;15.30;99.90;;;;;;4990392;28;20643;-80
2022/07/07 00:29:24;;;;;;;2.33;2.00;;;15.30;99.90;;;;;;4990774;28;20633;-80
2022/07/07 00:31:51;;;;;;;2.07;1.93;;;15.30;99.90;;;;;;4988866;28;20636;-80
2022/07/07 00:34:19;;;;;;;1.93;1.83;;;15.30;99.90;;;;;;4989885;28;20667;-80
2022/07/07 00:36:46;;;;;;;3.00;1.90;;;15.20;99.90;;;;;;4989555;28;20621;-81
2022/07/07 00:39:13;;;;;;;2.73;2.10;;;15.20;99.90;;;;;;4988867;28;20635;-81
2022/07/07 00:41:40;;;;;;;2.57;1.90;;;15.20;99.90;;;;;;4988719;28;20678;-80
2022/07/07 00:44:12;;;;;;;3.17;2.00;;;15.30;99.90;;;;;;4989525;28;20672;-80
2022/07/07 00:46:45;;;;;;;4.00;2.33;;;15.30;99.90;;;;;;4988870;28;20633;-80
2022/07/07 00:49:13;;;;;;;3.60;2.40;;;15.20;99.90;;;;;;4987180;28;20717;-80
2022/07/07 00:51:42;;;;;;;2.30;2.10;;;15.20;99.90;;;;;;4988265;28;20632;-80
2022/07/07 00:54:10;;;;;;;5.33;2.50;;;15.30;99.90;;;;;;4988979;28;20621;-80
2022/07/07 00:56:37;;;;;;;3.57;1.80;;;15.20;99.90;;;;;;4989147;28;20633;-81
2022/07/07 00:59:07;;;;;;;5.63;2.40;;;15.30;99.90;;;;;;4985197;28;21302;-80
2022/07/07 01:01:36;;;;;;;5.13;2.07;;;15.30;99.90;;;;;;4987271;28;20692;-81
2022/07/07 01:04:03;;;;;;;2.53;2.27;;;15.20;99.90;;;;;;4987820;28;20675;-81
2022/07/07 01:06:32;;;;;;;3.27;2.33;;;15.30;99.90;;;;;;4988896;28;20652;-80
2022/07/07 01:09:00;;;;;;;4.83;2.40;;;15.30;99.90;;;;;;4989404;28;20641;-81
2022/07/07 01:11:28;;;;;;;3.20;2.23;;;15.30;99.90;;;;;;4987924;28;20726;-81
2022/07/07 01:13:55;;;;;;;2.33;2.00;;;15.30;99.90;;;;;;4980620;28;20643;-80
2022/07/07 01:16:21;;;;;;;2.13;1.93;;;15.20;99.90;;;;;;4988556;28;20648;-81
2022/07/07 01:18:48;;;;;;;8.13;2.50;;;15.30;99.90;;;;;;4988968;28;20652;-81
2022/07/07 01:21:19;;;;;;;4.53;1.87;;;15.30;99.90;;;;;;4986823;28;20660;-81
2022/07/07 01:23:48;;;;;;;3.20;2.10;;;15.30;99.90;;;;;;4988832;28;20756;-81
2022/07/07 01:26:15;;;;;;;8.53;2.53;;;15.30;99.90;;;;;;4988880;28;20838;-81
2022/07/07 01:28:42;;;;;;;4.67;2.17;;;15.30;99.90;;;;;;4988569;28;20629;-81
2022/07/07 01:31:09;;;;;;;2.30;2.10;;;15.30;99.90;;;;;;4987200;28;21296;-80
2022/07/07 01:33:36;;;;;;;3.40;2.40;;;15.40;99.90;;;;;;4988369;28;20667;-80
2022/07/07 01:36:03;;;;;;;3.53;2.20;;;15.40;99.90;;;;;;4986890;28;20636;-80
2022/07/07 01:38:30;;;;;;;3.60;2.20;;;15.40;99.90;;;;;;4988022;28;20625;-80
2022/07/07 01:40:58;;;;;;;2.10;1.90;;;15.40;99.90;;;;;;4987715;28;20779;-80
2022/07/07 01:43:25;;;;;;;2.40;2.20;;;15.40;99.90;;;;;;4988021;28;20664;-80
2022/07/07 01:45:52;;;;;;;5.50;2.27;;;15.40;99.90;;;;;;4988000;28;21423;-80
2022/07/07 01:48:19;;;;;;;2.40;2.20;;;15.40;99.90;;;;;;4987837;28;20628;-80
2022/07/07 01:50:45;;;;;;;3.40;2.40;;;15.40;99.90;;;;;;4987023;28;20667;-80
2022/07/07 01:53:12;;;;;;;2.33;2.13;;;15.40;99.90;;;;;;4988141;28;20991;-80
2022/07/07 01:55:39;;;;;;;6.63;3.60;;;15.40;99.90;;;;;;4988036;28;20643;-80
2022/07/07 01:58:07;;;;;;;3.50;2.80;;;15.30;99.90;;;;;;4987942;28;20629;-80
2022/07/07 02:00:34;;;;;;;3.60;2.50;;;15.40;99.90;;;;;;4984131;28;20663;-80
2022/07/07 02:03:01;;;;;;;2.47;2.27;;;15.40;99.90;;;;;;4986997;28;20672;-79
2022/07/07 02:05:28;;;;;;;2.60;2.00;;;15.40;99.90;;;;;;4983605;28;20633;-79
2022/07/07 02:07:56;;;;;;;5.90;2.47;;;15.40;99.90;;;;;;4988112;28;21183;-79
2022/07/07 02:13:04;;;;;;;3.97;2.20;;;15.40;99.90;;;;;;4976455;28;20609;-79
2022/07/07 02:15:33;;;;;;;3.20;2.10;;;15.40;99.90;;;;;;4987187;28;20639;-80
2022/07/07 02:18:00;;;;;;;3.27;2.40;;;15.50;99.90;;;;;;4987761;28;20628;-79
2022/07/07 02:20:26;;;;;;;7.10;2.93;;;15.50;99.90;;;;;;4986990;28;20657;-80
2022/07/07 02:22:53;;;;;;;6.73;2.63;;;15.50;99.90;;;;;;4987612;28;20643;-80
2022/07/07 02:25:20;;;;;;;3.50;2.30;;;15.60;99.90;;;;;;4987949;28;20633;-80
2022/07/07 02:27:47;;;;;;;5.60;2.17;;;15.50;99.90;;;;;;4987569;28;20667;-80
2022/07/07 02:30:14;;;;;;;4.13;2.23;;;15.50;99.90;;;;;;4987131;28;21072;-79
2022/07/07 02:32:42;;;;;;;2.97;2.57;;;15.50;99.90;;;;;;4986758;28;20637;-80
2022/07/07 02:35:09;;;;;;;3.10;1.90;;;15.40;99.90;;;;;;4986812;28;20992;-79
2022/07/07 02:37:36;;;;;;;4.07;3.03;;;15.40;99.90;;;;;;4987250;28;20648;-80
2022/07/07 02:40:04;;;;;;;3.40;1.80;;;15.40;99.90;;;;;;4984463;28;20652;-79
2022/07/07 02:42:31;;;;;;;2.47;2.27;;;15.40;99.90;;;;;;4986629;28;20668;-80
2022/07/07 02:44:57;;;;;;;2.00;1.80;;;15.40;99.90;;;;;;4987453;28;20686;-79
2022/07/07 02:47:24;;;;;;;6.33;2.00;;;15.40;99.90;;;;;;4985584;28;20631;-80
2022/07/07 02:49:52;;;;;;;4.27;2.10;;;15.30;99.90;;;;;;4986537;28;20661;-82
2022/07/07 02:52:19;;;;;;;3.77;2.63;;;15.30;99.90;;;;;;4986535;28;20633;-79
2022/07/07 02:54:47;;;;;;;3.20;2.10;;;15.30;99.90;;;;;;4987500;28;20625;-79
2022/07/07 02:57:14;;;;;;;2.47;2.27;;;15.30;99.90;;;;;;4987852;28;20629;-79
2022/07/07 02:59:42;;;;;;;6.57;2.80;;;15.30;99.90;;;;;;4986720;28;20660;-81
2022/07/07 03:02:09;;;;;;;3.63;2.27;;;15.30;99.90;;;;;;4989772;28;21099;-82
2022/07/07 03:04:36;;;;;;;2.00;1.90;;;15.30;99.90;;;;;;4987169;28;20668;-81
2022/07/07 03:07:05;;;;;;;4.27;2.37;;;15.30;99.90;;;;;;4986511;28;20990;-81
2022/07/07 03:09:31;;;;;;;3.03;2.13;;;15.30;99.90;;;;;;4986353;28;20672;-81
2022/07/07 03:11:58;;;;;;;2.17;1.70;;;15.20;99.90;;;;;;4985344;28;21219;-81
2022/07/07 03:14:25;;;;;;;3.50;1.77;;;15.30;99.90;;;;;;4986273;28;20625;-81
2022/07/07 03:16:52;;;;;;;2.90;2.57;;;15.30;99.90;;;;;;4986201;28;20648;-82
2022/07/07 03:19:19;;;;;;;4.33;2.30;;;15.30;99.90;;;;;;4986976;28;20714;-79
2022/07/07 03:21:45;;;;;;;2.57;2.37;;;15.30;99.90;;;;;;4985767;28;20629;-79
2022/07/07 03:24:14;;;;;;;3.57;2.43;;;15.30;99.90;;;;;;4986120;28;20668;-81
2022/07/07 03:26:41;;;;;;;4.60;2.10;;;15.40;99.90;;;;;;4990166;28;21203;-79
2022/07/07 03:29:08;;;;;;;2.77;2.30;;;15.40;99.90;;;;;;4990648;28;20644;-81
2022/07/07 03:31:35;;;;;;;4.90;2.50;;;15.40;99.90;;;;;;4989298;28;20636;-80
2022/07/07 03:34:01;;;;;;;2.40;2.20;;;15.40;99.90;;;;;;4990384;28;20636;-80
2022/07/07 03:36:29;;;;;;;4.20;2.80;;;15.30;99.90;;;;;;4986160;28;20720;-80
2022/07/07 03:38:56;;;;;;;6.17;2.57;;;15.30;99.90;;;;;;4990668;28;20639;-80
2022/07/07 03:41:24;;;;;;;3.03;2.10;;;15.40;99.90;;;;;;4989504;28;20742;-80
2022/07/07 03:43:50;;;;;;;4.80;2.50;;;15.40;99.90;;;;;;4989359;28;21517;-80
2022/07/07 03:46:17;;;;;;;3.03;2.37;;;15.40;99.90;;;;;;4988945;28;20675;-80
2022/07/07 03:48:44;;;;;;;5.67;1.90;;;15.40;99.90;;;;;;4989748;28;20999;-80
2022/07/07 03:51:11;;;;;;;4.27;2.37;;;15.40;99.90;;;;;;4988258;28;20765;-80
2022/07/07 03:53:38;;;;;;;1.90;1.80;;;15.40;99.90;;;;;;4989670;28;20629;-80
2022/07/07 03:56:05;;;;;;;3.73;2.03;;;15.50;99.90;;;;;;4987240;28;20633;-80
2022/07/07 03:58:33;;;;;;;3.67;2.27;;;15.40;99.90;;;;;;4989517;28;20636;-80
2022/07/07 04:01:00;;;;;;;5.43;1.93;;;15.50;99.90;;;;;;4988231;28;20643;-80
2022/07/07 04:03:27;;;;;;;2.37;2.10;;;15.50;99.90;;;;;;4988929;28;20923;-80
2022/07/07 04:05:54;;;;;;;3.30;1.73;;;15.50;99.90;;;;;;4989006;28;20750;-80
2022/07/07 04:08:20;;;;;;;4.80;2.40;;;15.60;99.90;;;;;;4988959;28;20631;-80
2022/07/07 04:10:47;;;;;;;4.17;1.83;;;15.70;99.90;;;;;;4989076;28;20648;-80
2022/07/07 04:13:14;;;;;;;2.00;1.90;;;15.70;99.90;;;;;;4987727;28;20669;-80
2022/07/07 04:15:42;;;;;;;4.60;1.70;;;15.70;99.90;;;;;;4988795;28;20648;-80
2022/07/07 04:18:09;;;;;;;3.70;1.60;;;15.70;99.90;;;;;;4988933;28;20998;-81
2022/07/07 04:20:36;;;;;;;4.03;2.23;;;15.80;99.90;;;;;;4988443;28;20648;-81
2022/07/07 04:23:03;;;;;;;3.30;2.00;;;15.90;99.90;;;;;;4988598;28;20639;-81
2022/07/07 04:25:30;;;;;;;4.47;2.60;;;15.90;99.90;;;;;;4984641;28;20664;-82
2022/07/07 04:27:56;;;;;;;7.20;1.97;;;15.90;99.90;;;;;;4988941;28;21258;-81
2022/07/07 04:30:23;;;;;;;4.57;2.40;;;15.90;99.90;;;;;;4987486;28;20664;-81
2022/07/07 04:32:51;;;;;;;3.27;2.23;;;15.90;99.90;;;;;;4987158;28;20632;-81
2022/07/07 04:35:19;;;;;;;6.60;2.80;;;16.00;99.90;;;;;;4988325;28;20631;-81
2022/07/07 04:37:46;;;;;;;5.93;2.03;;;16.00;99.90;;;;;;4988155;28;20627;-81
2022/07/07 04:40:13;;;;;;;3.60;2.10;;;16.00;99.90;;;;;;4988739;28;20659;-81
2022/07/07 04:42:40;;;;;;;2.30;2.10;;;16.10;99.90;;;;;;4988421;28;20628;-81
2022/07/07 04:45:09;;;;;;;4.63;1.90;;;16.10;99.90;;;;;;4989537;28;20684;-81
2022/07/07 04:47:40;;;;;;;3.10;2.33;;;16.00;99.90;;;;;;4970712;28;20632;-81
2022/07/07 04:50:09;;;;;;;3.20;2.60;;;16.00;99.90;;;;;;4988105;28;20663;-81
2022/07/07 04:52:36;;;;;;;2.80;2.03;;;16.00;99.90;;;;;;4989229;28;20636;-81
2022/07/07 04:55:04;;;;;;;2.90;1.80;;;16.10;99.90;;;;;;4990755;28;20620;-80
2022/07/07 04:57:31;;;;;;;1.77;1.67;;;16.10;99.90;;;;;;4988742;28;20635;-80
2022/07/07 04:59:58;;;;;;;3.10;2.70;;;16.10;99.90;;;;;;4988113;28;20656;-80
2022/07/07 05:02:26;;;;;;;2.93;2.13;;;16.10;99.90;;;;;;4986854;28;20655;-80
2022/07/07 05:04:53;;;;;;;2.80;2.50;;;16.20;99.90;;;;;;4988308;28;20670;-81
2022/07/07 05:07:21;;;;;;;2.00;1.90;;;16.10;99.90;;;;;;4988068;28;20640;-81
2022/07/07 05:09:48;;;;;;;2.43;2.23;;;16.10;99.90;;;;;;4987994;28;21277;-80
2022/07/07 05:12:15;;;;;;;3.70;2.20;;;16.20;99.90;;;;;;4986922;28;21044;-81
2022/07/07 05:14:43;;;;;;;2.63;2.20;;;16.20;99.90;;;;;;4987264;28;20624;-80
2022/07/07 05:17:10;;;;;;;5.80;2.77;;;16.20;99.90;;;;;;4987582;28;20946;-81
2022/07/07 05:19:37;;;;;;;4.73;2.40;;;16.20;99.90;;;;;;4987807;28;20663;-81
2022/07/07 05:22:04;;;;;;;3.23;2.93;;;16.20;99.90;;;;;;4986907;28;20635;-81
2022/07/07 05:24:32;;;;;;;7.40;2.33;;;16.20;99.90;;;;;;4987742;28;20672;-81
2022/07/07 05:26:59;;;;;;;4.77;2.50;;;16.10;99.90;;;;;;4987393;28;20640;-80
2022/07/07 05:29:26;;;;;;;2.33;2.10;;;16.20;99.90;;;;;;4987610;28;21497;-81
2022/07/07 05:31:53;;;;;;;4.87;2.00;;;16.40;99.90;;;;;;4978474;28;20628;-81
2022/07/07 05:34:20;;;;;;;3.50;2.40;;;16.40;99.90;;;;;;4987737;28;20624;-81
2022/07/07 05:36:47;;;;;;;5.13;2.30;;;16.40;99.90;;;;;;4987913;28;20628;-81
2022/07/07 05:39:14;;;;;;;3.17;2.10;;;16.40;99.90;;;;;;4987608;28;20636;-81
2022/07/07 05:41:43;;;;;;;6.27;3.20;;;16.40;99.90;;;;;;4986837;28;20647;-81
2022/07/07 05:44:10;;;;;;;2.83;2.03;;;16.40;99.90;;;;;;4987440;28;21106;-80
2022/07/07 05:46:37;;;;;;;5.23;2.33;;;16.40;99.90;;;;;;4986758;28;21591;-80
2022/07/07 05:49:04;;;;;;;4.33;2.30;;;16.40;99.90;;;;;;4984659;28;21499;-80
2022/07/07 05:51:32;;;;;;;3.20;2.30;;;16.50;99.90;;;;;;4981658;28;20667;-80
2022/07/07 05:53:58;;;;;;;4.53;2.37;;;16.50;99.90;;;;;;4986795;28;20644;-81
2022/07/07 05:56:25;;;;;;;2.70;2.43;;;16.50;99.90;;;;;;4987900;28;20632;-81
2022/07/07 05:58:53;;;;;;;3.70;2.17;;;16.50;99.90;;;;;;4987519;28;20647;-81
2022/07/07 06:01:20;;;;;;;2.83;2.20;;;16.60;99.90;;;;;;4985866;28;20648;-81
2022/07/07 06:03:47;;;;;;;3.80;2.50;;;16.70;99.90;;;;;;4984967;28;20679;-81
2022/07/07 06:06:14;;;;;;;4.93;2.57;;;16.70;99.90;;;;;;4988133;28;20633;-81
2022/07/07 06:08:40;;;;;;;4.23;2.40;;;16.80;99.90;;;;;;4987819;28;20644;-81
2022/07/07 06:11:07;;;;;;;4.17;2.47;;;16.80;99.90;;;;;;4987182;28;20661;-79
2022/07/07 06:13:34;;;;;;;4.80;2.57;;;16.90;99.90;;;;;;4986982;28;20648;-79
2022/07/07 06:16:02;;;;;;;6.80;2.20;;;17.00;99.90;;;;;;4985364;28;20627;-80
2022/07/07 06:18:29;;;;;;;5.10;2.40;;;17.20;99.90;;;;;;4983349;28;20636;-79
2022/07/07 06:20:56;;;;;;;3.50;2.60;;;17.20;99.90;;;;;;4987774;28;20656;-80
2022/07/07 06:23:23;;;;;;;6.07;2.40;;;17.30;99.90;;;;;;4988262;28;20628;-80
2022/07/07 06:25:49;;;;;;;3.30;2.30;;;17.20;99.90;;;;;;4986469;28;20676;-79
2022/07/07 06:28:16;;;;;;;2.70;2.30;;;17.20;99.90;;;;;;4987426;28;20640;-82
2022/07/07 06:30:43;;;;;;;4.43;2.30;;;17.30;99.90;;;;;;4986438;28;20657;-80
2022/07/07 06:33:11;;;;;;;6.47;2.50;;;17.40;99.90;;;;;;4986532;28;20715;-81
2022/07/07 06:35:38;;;;;;;4.13;2.20;;;17.60;99.90;;;;;;4986497;28;20675;-81
2022/07/07 06:38:05;;;;;;;3.57;2.30;;;17.60;99.90;;;;;;4987096;28;21001;-81
2022/07/07 06:40:32;;;;;;;4.70;1.60;;;17.70;99.90;;;;;;4986389;28;20656;-81
2022/07/07 06:42:59;;;;;;;4.10;1.93;;;17.60;99.90;;;;;;4984472;28;20641;-80
2022/07/07 06:45:29;;;;;;;2.30;2.03;;;17.80;99.90;;;;;;4986952;28;20670;-81
2022/07/07 06:47:56;;;;;;;3.73;2.10;;;17.80;99.90;;;;;;4986283;28;20644;-80
2022/07/07 06:50:24;;;;;;;6.90;2.43;;;17.90;99.90;;;;;;4986106;28;20660;-80
2022/07/07 06:52:51;;;;;;;3.27;1.60;;;18.10;99.90;;;;;;4982215;28;20675;-80
2022/07/07 06:55:18;;;;;;;3.57;2.53;;;18.30;99.90;;;;;;4981383;28;20629;-80
2022/07/07 06:57:45;;;;;;;3.30;2.33;;;18.40;99.90;;;;;;4986664;28;21097;-80
2022/07/07 07:00:14;;;;;;;8.37;2.30;;;18.30;99.90;;;;;;4985689;28;20652;-80
2022/07/07 07:02:48;;;;;;;3.87;2.43;;;18.40;99.90;;;;;;4985475;28;20636;-80
2022/07/07 07:05:16;;;;;;;3.57;2.40;;;18.60;99.90;;;;;;4968839;28;20701;-80
2022/07/07 07:07:44;;;;;;;3.57;2.10;;;18.80;99.90;;;;;;4986043;28;20685;-79
2022/07/07 07:10:11;;;;;;;6.13;2.23;;;18.80;99.90;;;;;;4986192;28;21060;-81
2022/07/07 07:12:38;;;;;;;5.30;2.40;;;19.00;99.90;;;;;;4985436;28;20647;-80
2022/07/07 07:15:06;;;;;;;6.53;2.17;;;19.20;99.90;;;;;;4984870;28;20636;-81
2022/07/07 07:17:33;;;;;;;7.83;2.20;;;19.40;99.90;;;;;;4984788;28;20624;-80
2022/07/07 07:20:00;;;;;;;3.73;1.73;;;19.50;99.90;;;;;;4985293;28;21245;-80
2022/07/07 07:22:29;;;;;;;6.40;2.03;;;19.70;99.90;;;;;;4984920;28;20637;-80
2022/07/07 07:24:57;;;;;;;5.33;2.00;;;19.80;99.90;;;;;;4985958;28;20676;-81
2022/07/07 07:27:24;;;;;;;5.40;2.50;;;20.00;99.90;;;;;;4985796;28;20659;-81
2022/07/07 07:29:52;;;;;;;2.50;1.90;;;20.10;99.90;;;;;;4984964;28;20660;-80
2022/07/07 07:32:19;;;;;;;6.73;1.70;;;20.30;99.90;;;;;;4984633;28;21224;-80
2022/07/07 07:34:45;;;;;;;2.23;2.10;;;20.40;99.90;;;;;;4985843;28;20663;-81
2022/07/07 07:37:12;;;;;;;4.47;1.93;;;20.50;99.90;;;;;;4985870;28;20639;-81
2022/07/07 07:39:39;;;;;;;5.07;2.10;;;20.70;99.90;;;;;;4985784;28;20660;-81
2022/07/07 07:42:08;;;;;;;5.43;1.87;;;20.80;98.60;;;;;;4984910;28;20643;-81
2022/07/07 07:47:19;;;;;;;3.03;1.70;;;20.90;97.70;;;;;;4983707;28;21262;-81
2022/07/07 07:49:47;;;;;;;3.03;1.60;;;21.00;97.30;;;;;;4985461;28;20648;-79
2022/07/07 07:52:14;;;;;;;4.13;1.77;;;21.00;97.20;;;;;;4984630;28;20643;-79
2022/07/07 07:54:41;;;;;;;2.90;2.00;;;21.10;95.80;;;;;;4985482;28;21190;-81
2022/07/07 07:57:11;;;;;;;3.40;2.00;;;21.10;95.40;;;;;;4967954;28;20633;-81
2022/07/07 07:59:38;;;;;;;4.33;1.73;;;21.10;95.10;;;;;;4985738;28;20664;-81
2022/07/07 08:02:05;;;;;;;2.70;1.80;;;21.10;95.20;;;;;;4985039;28;20633;-81
2022/07/07 08:04:31;;;;;;;3.30;1.70;;;21.00;95.10;;;;;;4985089;28;20648;-81
2022/07/07 08:06:58;;;;;;;1.57;1.33;;;21.10;95.10;;;;;;4984098;28;21156;-80
2022/07/07 08:09:26;;;;;;;2.80;1.80;;;21.20;94.90;;;;;;4984815;28;20633;-81
2022/07/07 08:11:53;;;;;;;5.93;2.00;;;21.20;95.00;;;;;;4985821;28;20762;-81
2022/07/07 08:14:22;;;;;;;2.43;1.67;;;21.20;94.90;;;;;;4988559;28;20647;-81
2022/07/07 08:16:49;;;;;;;5.13;1.73;;;21.20;94.50;;;;;;4989014;28;20640;-81
2022/07/07 08:19:17;;;;;;;4.60;2.50;;;21.10;94.60;;;;;;4988562;28;21010;-81
2022/07/07 08:21:46;;;;;;;6.80;2.27;;;21.00;95.80;;;;;;4988578;28;20648;-81
2022/07/07 08:24:13;;;;;;;6.23;2.27;;;20.90;96.60;;;;;;4988577;28;21308;-80
2022/07/07 08:26:40;;;;;;;2.30;2.00;;;20.70;96.10;;;;;;4988569;28;20752;-80
2022/07/07 08:29:07;;;;;;;3.07;2.30;;;20.60;96.40;;;;;;4988854;28;20703;-81
2022/07/07 08:31:35;;;;;;;3.43;1.80;;;20.60;96.30;;;;;;4988077;28;21302;-81
2022/07/07 08:34:02;;;;;;;2.63;1.83;;;20.60;96.20;;;;;;4990177;28;20612;-80
2022/07/07 08:36:30;;;;;;;4.23;1.93;;;20.60;96.10;;;;;;4994504;28;21203;-81
2022/07/07 08:38:57;;;;;;;4.20;2.00;;;20.60;95.90;;;;;;4988702;28;20636;-81
2022/07/07 08:41:24;;;;;;;5.20;2.10;;;20.70;96.00;;;;;;4988168;28;20668;-80
2022/07/07 08:43:51;;;;;;;2.60;2.27;;;20.70;96.00;;;;;;4988156;28;20640;-80
2022/07/07 08:46:18;;;;;;;3.70;1.83;;;20.70;96.20;;;;;;4987989;28;20676;-81
2022/07/07 08:48:47;;;;;;;5.13;2.30;;;20.70;96.60;;;;;;4988352;28;20620;-81
2022/07/07 08:51:16;;;;;;;7.60;2.90;;;20.70;96.50;;;;;;4987761;28;21694;-80
2022/07/07 08:53:45;;;;;;;2.00;1.90;;;20.50;96.60;;;;;;4987483;28;21004;-81
2022/07/07 08:56:13;;;;;;;3.40;2.00;;;20.50;96.80;;;;;;4988559;28;21143;-80
2022/07/07 08:58:40;;;;;;;2.80;2.10;;;20.50;97.00;;;;;;4987498;28;21229;-80
2022/07/07 09:01:08;;;;;;;2.57;2.37;;;20.60;97.00;;;;;;4985368;28;20683;-80
2022/07/07 09:03:35;;;;;;;7.87;3.50;;;20.60;96.90;;;;;;4984033;28;21009;-81
2022/07/07 09:06:03;;;;;;;2.80;2.57;;;20.80;97.10;;;;;;4986470;28;21246;-81
2022/07/07 09:08:33;;;;;;;6.23;1.93;;;20.90;97.20;;;;;;4988580;28;20664;-80
2022/07/07 09:11:00;;;;;;;6.87;2.40;;;21.00;97.00;;;;;;4987515;28;20656;-81
2022/07/07 09:13:29;;;;;;;5.73;2.17;;;21.10;97.20;;;;;;4987267;28;20625;-81
2022/07/07 09:15:57;;;;;;;6.17;2.10;;;21.10;97.30;;;;;;4988016;28;20636;-80
2022/07/07 09:18:35;;;;;;;3.80;1.77;;;21.20;97.50;;;;;;4987296;28;21210;-80
2022/07/07 09:21:06;;;;;;;6.97;2.43;;;21.20;97.70;;;;;;4986924;28;21273;-80
2022/07/07 09:23:33;;;;;;;2.70;2.50;;;21.30;97.80;;;;;;4981930;28;20628;-80
2022/07/07 09:26:01;;;;;;;3.90;2.60;;;21.30;97.90;;;;;;4986460;28;20656;-80
2022/07/07 09:28:29;;;;;;;3.60;2.10;;;21.30;97.90;;;;;;4988320;28;20633;-81
2022/07/07 09:30:55;;;;;;;6.33;2.50;;;21.30;97.90;;;;;;4988131;28;21258;-80
2022/07/07 09:33:23;;;;;;;5.10;2.20;;;21.30;98.40;;;;;;4986322;28;20639;-80
2022/07/07 09:38:39;;;;;;;4.73;2.30;;;21.20;98.30;;;;;;4984826;28;21044;-81
2022/07/07 09:41:08;;;;;;;4.30;2.30;;;21.20;98.90;;;;;;4987040;28;20658;-80
2022/07/07 09:43:37;;;;;;;3.30;1.60;;;21.20;99.00;;;;;;4987522;28;20624;-81
2022/07/07 09:46:16;;;;;;;3.70;1.93;;;21.20;99.30;;;;;;4984833;28;20736;-81
2022/07/07 09:48:45;;;;;;;2.47;1.93;;;21.10;99.90;;;;;;4987586;28;20639;-81
2022/07/07 09:51:18;;;;;;;5.90;1.80;;;21.10;99.90;;;;;;4986719;28;20660;-80
2022/07/07 09:53:59;;;;;;;4.70;1.70;;;21.10;99.90;;;;;;4987307;28;20626;-79
2022/07/07 09:56:27;;;;;;;1.20;1.10;;;20.80;99.90;;;;;;4986768;28;20689;-80
2022/07/07 09:58:54;;;;;;;2.03;1.27;;;20.80;99.90;;;;;;4985267;28;20787;-80
2022/07/07 10:01:24;;;;;;;2.53;1.47;;;20.80;99.90;;;;;;4986720;28;20652;-80
2022/07/07 10:03:54;;;;;;;2.43;1.10;;;20.80;99.90;;;;;;4986713;28;20722;-80
2022/07/07 10:06:21;;;;;;;4.27;1.90;;;20.70;99.90;;;;;;4987037;28;20675;-80
2022/07/07 10:08:55;;;;;;;4.10;1.40;;;20.60;99.90;;;;;;4987400;28;20639;-80
2022/07/07 10:11:25;;;;;;;1.73;1.53;;;20.50;99.90;;;;;;4986868;28;20657;-80
2022/07/07 10:13:53;;;;;;;2.23;1.30;;;20.40;99.90;;;;;;4983747;28;20637;-80
2022/07/07 10:16:21;;;;;;;4.77;1.37;;;20.40;99.90;;;;;;4987197;28;20612;-80
2022/07/07 10:18:48;;;;;;;2.20;1.60;;;20.40;99.90;;;;;;4986859;28;20633;-80
2022/07/07 10:21:15;;;;;;;2.20;1.87;;;20.40;99.90;;;;;;4986219;28;21214;-80
2022/07/07 10:23:42;;;;;;;2.47;1.57;;;20.60;99.90;;;;;;4986242;28;20636;-80
2022/07/07 10:26:09;;;;;;;2.20;1.47;;;20.60;99.90;;;;;;4985897;28;21035;-80
2022/07/07 10:31:32;;;;;;;4.50;1.30;;;20.70;99.90;;;;;;5102847;27;20715;-80
2022/07/07 10:34:01;;;;;;;1.60;1.50;;;20.80;99.90;;;;;;5100667;28;21309;-80
2022/07/07 10:36:58;;;;;;;1.83;1.70;;;20.80;99.90;;;;;;5101636;28;20623;-80
2022/07/07 10:39:27;;;;;;;4.67;1.97;;;21.00;99.90;;;;;;5104244;28;21006;-80
2022/07/07 10:42:01;;;;;;;2.43;2.23;;;21.10;99.90;;;;;;5105102;28;20630;-80
2022/07/07 10:44:29;;;;;;;2.73;1.93;;;21.20;99.90;;;;;;5111974;28;20610;-79
2022/07/07 10:47:04;;;;;;;1.70;1.60;;;21.40;99.90;;;;;;5101803;28;21192;-79
2022/07/07 10:49:39;;;;;;;2.40;2.20;;;21.50;99.90;;;;;;5098206;28;20674;-80
2022/07/07 10:52:12;;;;;;;3.13;2.17;;;21.60;99.90;;;;;;5097502;28;21273;-79
2022/07/07 10:54:40;;;;;;;2.50;1.90;;;21.60;99.90;;;;;;5099724;28;20611;-80
2022/07/07 10:57:13;;;;;;;2.27;1.57;;;21.60;99.90;;;;;;5101958;28;20630;-80
2022/07/07 11:00:08;;;;;;;1.83;1.73;;;21.70;99.90;;;;;;5098060;28;20731;-81
2022/07/07 11:02:38;;;;;;;2.00;1.90;;;21.70;99.70;;;;;;5098465;28;20703;-80
2022/07/07 11:05:29;;;;;;;2.13;1.93;;;21.60;99.90;;;;;;5099535;28;20650;-80
2022/07/07 11:08:08;;;;;;;1.70;1.60;;;21.70;99.90;;;;;;5099833;28;20716;-81
2022/07/07 11:10:54;;;;;;;2.67;1.73;;;21.70;99.20;;;;;;5102008;28;20767;-80
2022/07/07 11:13:32;;;;;;;2.10;1.60;;;21.60;99.60;;;;;;5100929;28;20624;-80
2022/07/07 11:16:14;;;;;;;3.83;1.80;;;21.60;99.90;;;;;;5102525;28;20646;-81
2022/07/07 11:18:44;;;;;;;3.00;2.07;;;21.50;99.60;;;;;;5102340;28;20704;-81
2022/07/07 11:21:11;;;;;;;2.30;1.87;;;21.50;99.80;;;;;;5101270;28;20655;-81
2022/07/07 11:23:50;;;;;;;1.80;1.70;;;21.50;99.90;;;;;;5099698;28;20639;-80
2022/07/07 11:26:19;;;;;;;3.07;1.90;;;21.30;99.90;;;;;;5100072;28;20631;-81
2022/07/07 11:28:46;;;;;;;2.37;2.00;;;21.20;99.90;;;;;;5100008;28;20638;-81
2022/07/07 11:31:15;;;;;;;1.87;1.77;;;21.10;99.90;;;;;;5098544;28;20685;-80
2022/07/07 11:33:50;;;;;;;1.63;1.50;;;21.00;99.90;;;;;;5096145;28;20624;-81
2022/07/07 11:36:19;;;;;;;2.63;1.43;;;21.00;99.90;;;;;;5101831;28;20672;-80
2022/07/07 11:38:49;;;;;;;2.67;1.67;;;21.10;99.90;;;;;;5100885;28;20626;-81
2022/07/07 11:41:17;;;;;;;3.93;1.87;;;21.20;99.90;;;;;;5093619;28;20695;-80
2022/07/07 11:43:44;;;;;;;2.23;1.50;;;21.30;99.90;;;;;;5085675;28;21042;-80
2022/07/07 11:46:11;;;;;;;2.30;1.07;;;21.40;99.90;;;;;;5087616;28;20632;-80
2022/07/07 11:48:39;;;;;;;2.57;2.17;;;21.60;99.90;;;;;;5085787;28;20620;-80
2022/07/07 11:51:08;;;;;;;2.03;1.83;;;21.60;99.90;;;;;;5083374;28;20671;-80
2022/07/07 11:53:36;;;;;;;4.93;1.13;;;21.60;99.90;;;;;;5088075;28;20658;-80
2022/07/07 11:56:03;;;;;;;3.17;1.53;;;21.60;99.90;;;;;;5087863;28;20655;-80
2022/07/07 11:58:30;;;;;;;3.33;1.60;;;21.60;99.90;;;;;;5084594;28;20636;-80
2022/07/07 12:00:58;;;;;;;1.70;1.50;;;21.50;99.90;;;;;;5086737;28;20651;-80
2022/07/07 12:03:35;;;;;;;3.33;1.60;;;21.30;99.90;;;;;;5081720;28;20627;-80
2022/07/07 12:06:04;;;;;;;2.97;1.80;;;21.20;99.90;;;;;;5087186;28;20611;-80
2022/07/07 12:08:36;;;;;;;2.40;1.80;;;21.10;99.90;;;;;;5084124;28;20628;-80
2022/07/07 12:11:04;;;;;;;6.13;1.70;;;21.10;99.90;;;;;;5087795;28;20703;-79
2022/07/07 12:13:31;;;;;;;2.40;1.50;;;21.20;99.90;;;;;;5082429;28;20632;-80
2022/07/07 12:15:58;;;;;;;3.63;2.03;;;21.10;99.90;;;;;;5087390;28;20627;-79
2022/07/07 12:18:34;;;;;;;3.50;2.00;;;21.10;99.90;;;;;;5086734;28;20640;-80
2022/07/07 12:21:05;;;;;;;4.10;2.63;;;21.10;99.90;;;;;;5082828;28;20652;-80
2022/07/07 12:23:38;;;;;;;4.87;2.00;;;21.10;99.90;;;;;;5081951;28;20624;-79
2022/07/07 12:26:10;;;;;;;6.80;1.80;;;21.10;99.90;;;;;;5085052;28;20626;-79
2022/07/07 12:28:37;;;;;;;2.50;1.50;;;21.10;99.90;;;;;;5087520;28;20631;-79
2022/07/07 12:31:06;;;;;;;2.90;1.40;;;21.20;99.90;;;;;;5083423;28;20699;-79
2022/07/07 12:33:34;;;;;;;4.03;1.93;;;21.20;99.90;;;;;;5085635;28;20628;-79
2022/07/07 12:36:09;;;;;;;3.10;2.20;;;21.30;99.60;;;;;;5086459;28;20627;-79
2022/07/07 12:38:39;;;;;;;2.97;1.70;;;21.40;99.90;;;;;;5083178;28;21223;-81
2022/07/07 12:41:08;;;;;;;2.03;1.83;;;21.40;99.60;;;;;;5084748;28;20644;-81
2022/07/07 12:43:37;;;;;;;2.13;1.93;;;21.40;99.20;;;;;;5085741;28;20624;-81
2022/07/07 12:46:08;;;;;;;6.60;1.73;;;21.40;99.30;;;;;;5084498;28;21044;-81
2022/07/07 12:48:47;;;;;;;1.90;1.70;;;21.50;99.30;;;;;;5086035;28;20671;-81
2022/07/07 12:51:14;;;;;;;4.77;2.27;;;21.60;99.50;;;;;;5084118;28;20676;-80
2022/07/07 12:53:44;;;;;;;2.33;1.67;;;21.60;99.00;;;;;;5084768;28;20747;-80
2022/07/07 12:56:12;;;;;;;2.70;1.87;;;21.70;99.30;;;;;;5086243;28;21052;-80
2022/07/07 12:58:47;;;;;;;2.03;1.67;;;21.80;99.30;;;;;;5084927;28;20643;-80
2022/07/07 13:01:20;;;;;;;3.47;1.87;;;21.80;99.20;;;;;;5082399;28;20666;-80
2022/07/07 13:03:49;;;;;;;2.87;2.47;;;21.80;99.10;;;;;;5084823;28;20659;-80